CheckWX is a tool to help pilots better visualize weather data.  It is not intended as a substitute for an official pre-flight weather briefing.

06:38:07 UTC

RKTU TAF
Cheongju International Airport
Cheongju, South Korea
TAF RKTU 180500Z 1806/1912 30012KT 9999 SCT030 BKN200 TNM03/1821Z TX05/1906Z BECMG 1811/1812 4800 -SN BR BKN030 BECMG 1812/1813 3200 BKN015 OVC030 BECMG 1820/1821 30008KT 4800 BR BKN030 BECMG 1902/1903 -SN BR BECMG 1905/1906 BR SCT030 BECMG 1906/1907 9999 NSW

Nov-18@
06:00 UTC

Nov-18 @ 06:00 UTC

Nov-18@
11:00 UTC

Nov-18 @ 11:00 UTC

TAF RKTU 180500Z 1806/1912 30012KT 9999 SCT030 BKN200 TNM03/1821Z TX05/1906Z
Wind
  • 300° at 12 KTS
Cloud Levels
  • Scattered at 3,000' AGL
  • Broken at 20,000' AGL

Nov-18@
11:00 UTC

Nov-18 @ 11:00 UTC

Nov-18@
12:00 UTC

Nov-18 @ 12:00 UTC

BECMG 1811/1812 4800 -SN BR BKN030

Becoming

Becoming Conditions expected by Mon, Nov 18, 2019 @ 12:00 UTC

Wind
  • 300° at 12 KTS
Conditions
Light Snow, Mist
Cloud Levels
  • Broken at 3,000' AGL

Nov-18@
12:00 UTC

Nov-18 @ 12:00 UTC

Nov-18@
20:00 UTC

Nov-18 @ 20:00 UTC

BECMG 1812/1813 3200 BKN015 OVC030

Becoming

Becoming Conditions expected by Mon, Nov 18, 2019 @ 13:00 UTC

Wind
  • 300° at 12 KTS
Conditions
Light Snow, Mist
Cloud Levels
  • Broken at 1,500' AGL
  • Overcast at 3,000' AGL

Nov-18@
20:00 UTC

Nov-18 @ 20:00 UTC

Nov-19@
02:00 UTC

Nov-19 @ 02:00 UTC

BECMG 1820/1821 30008KT 4800 BR BKN030

Becoming

Becoming Conditions expected by Mon, Nov 18, 2019 @ 21:00 UTC

Wind
  • 300° at 8 KTS
Conditions
Mist
Cloud Levels
  • Broken at 3,000' AGL

Nov-19@
02:00 UTC

Nov-19 @ 02:00 UTC

Nov-19@
05:00 UTC

Nov-19 @ 05:00 UTC

BECMG 1902/1903 -SN BR

Becoming

Becoming Conditions expected by Tue, Nov 19, 2019 @ 03:00 UTC

Wind
  • 300° at 8 KTS
Conditions
Light Snow, Mist
Cloud Levels
  • Broken at 3,000' AGL

Nov-19@
05:00 UTC

Nov-19 @ 05:00 UTC

Nov-19@
06:00 UTC

Nov-19 @ 06:00 UTC

BECMG 1905/1906 BR SCT030

Becoming

Becoming Conditions expected by Tue, Nov 19, 2019 @ 06:00 UTC

Wind
  • 300° at 8 KTS
Conditions
Mist
Cloud Levels
  • Scattered at 3,000' AGL

Nov-19@
06:00 UTC

Nov-19 @ 06:00 UTC

Nov-19@
12:00 UTC

Nov-19 @ 12:00 UTC

BECMG 1906/1907 9999 NSW

Becoming

Becoming Conditions expected by Tue, Nov 19, 2019 @ 07:00 UTC

Wind
  • 300° at 8 KTS
Conditions
No significant weather
Cloud Levels
  • Scattered at 3,000' AGL